Wetterdaten: Woche 20.05.19 - 26.05.19 (KW21)
Datum Zeit Temp. Aussen Temp. o. S. +5cm Feuchte Auss Luftdruck Regen Sonnenschein Regendauer Solar Windben Empfang
20.05.2019 00:00 13,4 C 11,3 C 10,8 C 90 % 1005,9 hPa 0,0 l/m 0,00 h 0,00 h 0 W/m 0,0 km/h (0 Bft) 94,99 %
20.05.2019 01:00 12,4 C 10,6 C 10,5 C 91 % 1005,8 hPa 0,0 l/m 0,00 h 0,00 h 0 W/m 0,4 km/h (0 Bft) 98,41 %
20.05.2019 02:00 12,1 C 10,9 C 10,8 C 94 % 1005,8 hPa 0,0 l/m 0,00 h 0,00 h 0 W/m 3,3 km/h (1 Bft) 99,00 %
20.05.2019 03:00 12,7 C 12,0 C 11,7 C 97 % 1005,9 hPa 0,0 l/m 0,00 h 0,00 h 0 W/m 5,8 km/h (2 Bft) 95,44 %
20.05.2019 04:00 12,7 C 12,2 C 12,2 C 97 % 1006,0 hPa 0,0 l/m 0,00 h 0,00 h 0 W/m 5,5 km/h (1 Bft) 98,35 %
20.05.2019 05:00 12,8 C 12,2 C 12,2 C 97 % 1006,2 hPa 0,0 l/m 0,00 h 0,00 h 4 W/m 5,6 km/h (1 Bft) 98,65 %
20.05.2019 06:00 12,8 C 12,4 C 12,2 C 97 % 1006,4 hPa 0,0 l/m 0,00 h 0,00 h 16 W/m 4,0 km/h (1 Bft) 96,28 %
20.05.2019 07:00 13,1 C 13,3 C 12,7 C 97 % 1006,5 hPa 0,0 l/m 0,00 h 0,00 h 58 W/m 6,2 km/h (2 Bft) 97,50 %
20.05.2019 08:00 13,4 C 13,8 C 13,3 C 95 % 1006,7 hPa 0,0 l/m 0,00 h 0,00 h 98 W/m 10,8 km/h (2 Bft) 97,84 %
20.05.2019 09:00 13,8 C 14,1 C 13,5 C 92 % 1007,1 hPa 0,0 l/m 0,00 h 0,00 h 125 W/m 10,6 km/h (2 Bft) 97,24 %
20.05.2019 10:00 13,9 C 14,4 C 13,8 C 91 % 1007,4 hPa 0,0 l/m 0,00 h 0,00 h 152 W/m 9,8 km/h (2 Bft) 96,77 %
20.05.2019 11:00 14,3 C 14,9 C 14,3 C 89 % 1007,7 hPa 0,0 l/m 0,00 h 0,00 h 164 W/m 10,5 km/h (2 Bft) 98,22 %
20.05.2019 12:00 15,0 C 15,9 C 15,3 C 87 % 1007,8 hPa 0,0 l/m 0,00 h 0,00 h 234 W/m 10,6 km/h (2 Bft) 98,97 %
20.05.2019 13:00 15,5 C 16,0 C 15,2 C 86 % 1008,1 hPa 0,0 l/m 0,00 h 0,00 h 178 W/m 10,5 km/h (2 Bft) 94,51 %
20.05.2019 14:00 15,8 C 16,0 C 15,5 C 85 % 1008,2 hPa 0,0 l/m 0,00 h 0,00 h 158 W/m 8,7 km/h (2 Bft) 98,20 %
20.05.2019 15:00 15,8 C 15,7 C 15,2 C 86 % 1008,2 hPa 0,0 l/m 0,00 h 0,00 h 124 W/m 10,2 km/h (2 Bft) 98,79 %
20.05.2019 16:00 15,9 C 15,8 C 15,4 C 87 % 1008,2 hPa 0,0 l/m 0,00 h 0,00 h 114 W/m 9,8 km/h (2 Bft) 96,72 %
20.05.2019 17:00 15,9 C 15,7 C 15,4 C 87 % 1008,2 hPa 0,0 l/m 0,00 h 0,00 h 109 W/m 13,0 km/h (3 Bft) 97,58 %
20.05.2019 18:00 15,6 C 15,3 C 15,0 C 87 % 1008,2 hPa 0,0 l/m 0,00 h 0,00 h 84 W/m 12,9 km/h (3 Bft) 97,39 %
20.05.2019 19:00 15,6 C 15,4 C 14,9 C 87 % 1008,2 hPa 0,0 l/m 0,00 h 0,00 h 81 W/m 12,0 km/h (2 Bft) 97,51 %
20.05.2019 20:00 15,2 C 14,3 C 14,1 C 88 % 1008,7 hPa 0,0 l/m 0,00 h 0,00 h 19 W/m 9,7 km/h (2 Bft) 97,86 %
20.05.2019 21:00 14,7 C 13,9 C 13,5 C 90 % 1009,0 hPa 0,0 l/m 0,00 h 0,00 h 6 W/m 10,9 km/h (2 Bft) 96,51 %
20.05.2019 22:00 14,3 C 13,3 C 13,3 C 91 % 1009,3 hPa 0,0 l/m 0,00 h 0,00 h 0 W/m 12,9 km/h (3 Bft) 97,86 %
20.05.2019 23:00 14,0 C 13,0 C 12,9 C 92 % 1009,5 hPa 0,0 l/m 0,00 h 0,00 h 0 W/m 13,4 km/h (3 Bft) 97,15 %
21.05.2019 00:00 13,4 C 12,3 C 12,2 C 94 % 1009,5 hPa 0,0 l/m 0,00 h 0,17 h 0 W/m 15,3 km/h (3 Bft) 97,59 %
21.05.2019 01:00 12,8 C 11,6 C 11,4 C 96 % 1009,7 hPa 0,0 l/m 0,00 h 0,27 h 0 W/m 12,9 km/h (3 Bft) 98,29 %
21.05.2019 02:00 12,0 C 10,9 C 10,7 C 97 % 1009,7 hPa 0,2 l/m 0,00 h 0,03 h 0 W/m 12,8 km/h (3 Bft) 96,58 %
21.05.2019 03:00 11,7 C 10,6 C 10,6 C 98 % 1009,5 hPa 0,0 l/m 0,00 h 0,07 h 0 W/m 14,4 km/h (3 Bft) 98,22 %
21.05.2019 04:00 11,6 C 10,6 C 10,6 C 98 % 1009,5 hPa 0,0 l/m 0,00 h 0,00 h 0 W/m 14,2 km/h (3 Bft) 97,65 %
21.05.2019 05:00 11,7 C 10,8 C 10,6 C 99 % 1009,8 hPa 0,0 l/m 0,00 h 0,00 h 0 W/m 15,0 km/h (3 Bft) 97,42 %
21.05.2019 06:00 11,7 C 11,1 C 10,6 C 99 % 1010,1 hPa 0,0 l/m 0,00 h 0,00 h 7 W/m 15,4 km/h (3 Bft) 98,44 %
21.05.2019 07:00 11,7 C 11,1 C 10,6 C 99 % 1010,3 hPa 0,0 l/m 0,00 h 0,00 h 14 W/m 18,2 km/h (3 Bft) 96,30 %
21.05.2019 08:00 11,5 C 11,0 C 10,7 C 99 % 1010,9 hPa 0,0 l/m 0,00 h 0,00 h 25 W/m 15,5 km/h (3 Bft) 97,81 %
21.05.2019 09:00 11,2 C 10,6 C 10,6 C 99 % 1011,4 hPa 0,0 l/m 0,00 h 0,10 h 43 W/m 18,9 km/h (3 Bft) 98,24 %
21.05.2019 10:00 11,3 C 11,0 C 10,6 C 99 % 1012,0 hPa 0,0 l/m 0,00 h 0,00 h 57 W/m 17,9 km/h (3 Bft) 97,49 %
21.05.2019 11:00 11,5 C 11,1 C 10,7 C 99 % 1012,6 hPa 0,6 l/m 0,00 h 0,60 h 49 W/m 12,7 km/h (3 Bft) 96,80 %
21.05.2019 12:00 11,9 C 11,2 C 11,0 C 99 % 1013,0 hPa 0,2 l/m 0,00 h 0,47 h 60 W/m 12,8 km/h (3 Bft) 97,90 %
21.05.2019 13:00 12,1 C 11,7 C 11,1 C 99 % 1013,6 hPa 0,0 l/m 0,00 h 0,07 h 55 W/m 13,6 km/h (3 Bft) 99,22 %
21.05.2019 14:00 12,1 C 11,5 C 11,1 C 99 % 1014,1 hPa 0,2 l/m 0,00 h 0,70 h 64 W/m 14,0 km/h (3 Bft) 94,30 %
21.05.2019 15:00 12,1 C 11,7 C 11,1 C 99 % 1014,6 hPa 0,0 l/m 0,00 h 0,73 h 52 W/m 9,9 km/h (2 Bft) 98,80 %
21.05.2019 16:00 12,1 C 11,7 C 11,1 C 99 % 1015,0 hPa 0,0 l/m 0,00 h 0,63 h 48 W/m 10,9 km/h (2 Bft) 99,31 %
21.05.2019 17:00 12,3 C 11,4 C 11,1 C 99 % 1015,4 hPa 1,8 l/m 0,00 h 1,00 h 46 W/m 8,3 km/h (2 Bft) 95,60 %
21.05.2019 18:00 12,2 C 11,1 C 11,1 C 99 % 1015,7 hPa 2,0 l/m 0,00 h 1,00 h 25 W/m 4,7 km/h (1 Bft) 97,65 %
21.05.2019 19:00 12,1 C 11,1 C 10,9 C 99 % 1015,8 hPa 0,0 l/m 0,00 h 0,03 h 17 W/m 5,6 km/h (1 Bft) 97,86 %
21.05.2019 20:00 11,9 C 11,1 C 10,7 C 99 % 1016,1 hPa 0,0 l/m 0,00 h 0,00 h 17 W/m 7,5 km/h (2 Bft) 98,00 %
21.05.2019 21:00 11,6 C 10,7 C 10,5 C 99 % 1016,7 hPa 0,0 l/m 0,00 h 0,00 h 0 W/m 9,7 km/h (2 Bft) 95,72 %
21.05.2019 22:00 11,4 C 10,6 C 10,0 C 98 % 1017,3 hPa 0,0 l/m 0,00 h 0,00 h 0 W/m 6,1 km/h (2 Bft) 98,23 %
21.05.2019 23:00 11,2 C 10,6 C 10,0 C 98 % 1017,4 hPa 0,0 l/m 0,00 h 0,00 h 0 W/m 7,1 km/h (2 Bft) 98,64 %
22.05.2019 00:00 11,1 C 10,6 C 10,0 C 98 % 1017,5 hPa 0,0 l/m 0,00 h 0,00 h 0 W/m 8,5 km/h (2 Bft) 94,82 %
22.05.2019 01:00 10,9 C 10,2 C 10,0 C 98 % 1017,6 hPa 0,0 l/m 0,00 h 0,00 h 0 W/m 7,4 km/h (2 Bft) 99,43 %
22.05.2019 02:00 10,8 C 10,0 C 9,8 C 99 % 1017,6 hPa 0,0 l/m 0,00 h 0,00 h 0 W/m 10,4 km/h (2 Bft) 98,36 %
22.05.2019 03:00 10,6 C 10,0 C 9,4 C 99 % 1017,9 hPa 0,0 l/m 0,00 h 0,00 h 0 W/m 6,6 km/h (2 Bft) 95,59 %
22.05.2019 04:00 10,1 C 9,4 C 9,4 C 99 % 1018,3 hPa 0,0 l/m 0,00 h 0,00 h 0 W/m 6,6 km/h (2 Bft) 98,77 %
22.05.2019 05:00 9,8 C 9,4 C 9,0 C 98 % 1018,7 hPa 0,0 l/m 0,00 h 0,00 h 2 W/m 7,0 km/h (2 Bft) 97,50 %
22.05.2019 06:00 9,6 C 9,4 C 8,9 C 97 % 1019,1 hPa 0,0 l/m 0,00 h 0,00 h 14 W/m 6,2 km/h (2 Bft) 95,84 %
22.05.2019 07:00 9,7 C 9,6 C 8,9 C 95 % 1019,3 hPa 0,0 l/m 0,00 h 0,00 h 36 W/m 6,5 km/h (2 Bft) 98,07 %
22.05.2019 08:00 10,1 C 10,4 C 9,4 C 92 % 1019,7 hPa 0,0 l/m 0,00 h 0,00 h 75 W/m 8,2 km/h (2 Bft) 98,58 %
22.05.2019 09:00 10,8 C 12,1 C 10,9 C 90 % 1020,0 hPa 0,0 l/m 0,00 h 0,00 h 165 W/m 6,6 km/h (2 Bft) 96,87 %
22.05.2019 10:00 12,3 C 15,9 C 14,4 C 86 % 1020,2 hPa 0,0 l/m 0,30 h 0,00 h 325 W/m 7,8 km/h (2 Bft) 96,15 %
22.05.2019 11:00 15,2 C 22,4 C 21,6 C 77 % 1020,3 hPa 0,0 l/m 0,70 h 0,00 h 727 W/m 9,3 km/h (2 Bft) 96,73 %
22.05.2019 12:00 18,2 C 26,1 C 26,4 C 68 % 1020,3 hPa 0,0 l/m 1,00 h 0,00 h 953 W/m 9,4 km/h (2 Bft) 98,46 %
22.05.2019 13:00 19,8 C 26,2 C 27,6 C 63 % 1020,2 hPa 0,0 l/m 1,00 h 0,00 h 1038 W/m 11,0 km/h (2 Bft) 99,70 %
22.05.2019 14:00 21,2 C 26,0 C 25,9 C 59 % 1020,0 hPa 0,0 l/m 0,87 h 0,00 h 873 W/m 9,7 km/h (2 Bft) 96,31 %
22.05.2019 15:00 20,7 C 22,6 C 20,3 C 58 % 1019,8 hPa 0,0 l/m 0,53 h 0,00 h 546 W/m 10,4 km/h (2 Bft) 99,36 %
22.05.2019 16:00 21,1 C 22,0 C 20,0 C 57 % 1019,6 hPa 0,0 l/m 0,87 h 0,00 h 605 W/m 8,8 km/h (2 Bft) 96,38 %
22.05.2019 17:00 20,6 C 20,2 C 19,1 C 57 % 1019,3 hPa 0,0 l/m 0,23 h 0,00 h 247 W/m 7,5 km/h (2 Bft) 96,87 %
22.05.2019 18:00 20,5 C 19,8 C 19,1 C 59 % 1019,1 hPa 0,0 l/m 0,50 h 0,00 h 264 W/m 7,5 km/h (2 Bft) 99,42 %
22.05.2019 19:00 19,4 C 18,5 C 17,5 C 61 % 1019,0 hPa 0,0 l/m 0,30 h 0,00 h 117 W/m 4,0 km/h (1 Bft) 95,95 %
22.05.2019 20:00 18,4 C 16,6 C 15,5 C 64 % 1019,0 hPa 0,0 l/m 0,00 h 0,00 h 23 W/m 0,5 km/h (0 Bft) 97,37 %
22.05.2019 21:00 17,1 C 15,2 C 14,0 C 69 % 1019,3 hPa 0,0 l/m 0,00 h 0,00 h 6 W/m 1,1 km/h (0 Bft) 99,21 %
22.05.2019 22:00 15,9 C 13,9 C 12,9 C 69 % 1019,7 hPa 0,0 l/m 0,00 h 0,00 h 0 W/m 2,1 km/h (1 Bft) 96,23 %
22.05.2019 23:00 14,4 C 11,9 C 11,1 C 72 % 1019,9 hPa 0,0 l/m 0,00 h 0,00 h 0 W/m 0,9 km/h (0 Bft) 98,86 %
23.05.2019 00:00 12,8 C 10,5 C 9,9 C 77 % 1020,1 hPa 0,0 l/m 0,00 h 0,00 h 0 W/m 0,3 km/h (0 Bft) 96,11 %
23.05.2019 01:00 11,5 C 9,1 C 8,7 C 81 % 1020,0 hPa 0,0 l/m 0,00 h 0,00 h 0 W/m 0,0 km/h (0 Bft) 97,29 %
23.05.2019 02:00 10,4 C 8,1 C 7,7 C 84 % 1020,0 hPa 0,0 l/m 0,00 h 0,00 h 0 W/m 0,0 km/h (0 Bft) 97,65 %
23.05.2019 03:00 9,5 C 7,2 C 6,9 C 86 % 1019,7 hPa 0,0 l/m 0,00 h 0,00 h 0 W/m 0,0 km/h (0 Bft) 99,65 %
23.05.2019 04:00 8,6 C 6,8 C 6,4 C 88 % 1019,5 hPa 0,0 l/m 0,00 h 0,00 h 0 W/m 0,0 km/h (0 Bft) 96,93 %
23.05.2019 05:00 8,0 C 6,1 C 6,1 C 88 % 1019,3 hPa 0,0 l/m 0,00 h 0,00 h 8 W/m 0,0 km/h (0 Bft) 95,74 %
23.05.2019 06:00 7,8 C 7,4 C 6,8 C 91 % 1019,3 hPa 0,0 l/m 0,00 h 0,00 h 25 W/m 1,0 km/h (0 Bft) 98,43 %
23.05.2019 07:00 9,2 C 9,9 C 9,2 C 95 % 1019,4 hPa 0,0 l/m 0,00 h 0,00 h 47 W/m 6,0 km/h (2 Bft) 98,65 %
23.05.2019 08:00 11,7 C 16,3 C 14,1 C 95 % 1019,4 hPa 0,0 l/m 0,17 h 0,00 h 137 W/m 9,8 km/h (2 Bft) 95,45 %
23.05.2019 09:00 15,9 C 21,2 C 21,9 C 79 % 1019,4 hPa 0,0 l/m 1,00 h 0,00 h 505 W/m 9,8 km/h (2 Bft) 94,78 %
23.05.2019 10:00 18,7 C 24,3 C 24,8 C 66 % 1019,3 hPa 0,0 l/m 1,00 h 0,00 h 665 W/m 12,0 km/h (2 Bft) 98,35 %
23.05.2019 11:00 20,9 C 26,7 C 27,1 C 56 % 1019,1 hPa 0,0 l/m 1,00 h 0,00 h 770 W/m 12,7 km/h (3 Bft) 98,16 %
23.05.2019 12:00 22,0 C 26,1 C 26,7 C 52 % 1018,6 hPa 0,0 l/m 0,80 h 0,00 h 800 W/m 14,4 km/h (3 Bft) 97,95 %
23.05.2019 13:00 22,8 C 25,8 C 26,4 C 51 % 1018,0 hPa 0,0 l/m 0,73 h 0,00 h 665 W/m 14,7 km/h (3 Bft) 97,93 %
23.05.2019 14:00 23,1 C 25,8 C 25,5 C 48 % 1017,7 hPa 0,0 l/m 0,93 h 0,00 h 730 W/m 14,0 km/h (3 Bft) 96,65 %
23.05.2019 15:00 23,7 C 26,0 C 23,8 C 47 % 1017,3 hPa 0,0 l/m 0,95 h 0,00 h 807 W/m 13,5 km/h (3 Bft) 97,16 %
23.05.2019 16:00 24,0 C 24,1 C 23,2 C 46 % 1016,8 hPa 0,0 l/m 0,95 h 0,00 h 601 W/m 12,6 km/h (3 Bft) 99,00 %
23.05.2019 17:00 23,9 C 23,2 C 22,6 C 44 % 1016,5 hPa 0,0 l/m 0,97 h 0,00 h 422 W/m 11,7 km/h (2 Bft) 95,09 %
23.05.2019 18:00 23,6 C 23,0 C 22,3 C 42 % 1016,3 hPa 0,0 l/m 1,00 h 0,00 h 356 W/m 11,2 km/h (2 Bft) 98,42 %
23.05.2019 19:00 22,5 C 21,4 C 20,2 C 43 % 1016,3 hPa 0,0 l/m 0,50 h 0,00 h 176 W/m 9,2 km/h (2 Bft) 99,50 %
23.05.2019 20:00 20,5 C 18,5 C 17,5 C 46 % 1016,2 hPa 0,0 l/m 0,00 h 0,00 h 30 W/m 5,3 km/h (1 Bft) 95,16 %
23.05.2019 21:00 18,5 C 15,7 C 14,6 C 51 % 1016,5 hPa 0,0 l/m 0,00 h 0,00 h 7 W/m 2,6 km/h (1 Bft) 98,42 %
23.05.2019 22:00 16,2 C 13,6 C 12,4 C 61 % 1016,7 hPa 0,0 l/m 0,00 h 0,00 h 0 W/m 0,0 km/h (0 Bft) 98,51 %
23.05.2019 23:00 14,7 C 12,4 C 11,6 C 69 % 1016,7 hPa 0,0 l/m 0,00 h 0,00 h 0 W/m 0,0 km/h (0 Bft) 96,79 %
24.05.2019 00:00 13,5 C 11,4 C 10,8 C 73 % 1016,3 hPa 0,0 l/m 0,00 h 0,00 h 0 W/m 0,1 km/h (0 Bft) 97,90 %
24.05.2019 01:00 12,6 C 10,8 C 10,0 C 76 % 1016,0 hPa 0,0 l/m 0,00 h 0,00 h 0 W/m 0,2 km/h (0 Bft) 97,44 %
24.05.2019 02:00 11,6 C 9,5 C 9,0 C 79 % 1015,7 hPa 0,0 l/m 0,00 h 0,00 h 0 W/m 0,0 km/h (0 Bft) 95,72 %
24.05.2019 03:00 10,7 C 9,9 C 8,7 C 82 % 1015,4 hPa 0,0 l/m 0,00 h 0,00 h 0 W/m 0,4 km/h (0 Bft) 98,21 %
24.05.2019 04:00 11,2 C 11,5 C 10,3 C 81 % 1015,2 hPa 0,0 l/m 0,00 h 0,00 h 0 W/m 2,6 km/h (1 Bft) 98,08 %
24.05.2019 05:00 11,5 C 9,9 C 8,8 C 79 % 1015,2 hPa 0,0 l/m 0,00 h 0,00 h 9 W/m 0,0 km/h (0 Bft) 96,70 %
24.05.2019 06:00 11,1 C 10,9 C 10,3 C 82 % 1015,2 hPa 0,0 l/m 0,00 h 0,00 h 23 W/m 2,8 km/h (1 Bft) 95,69 %
24.05.2019 07:00 12,0 C 12,8 C 12,0 C 82 % 1015,4 hPa 0,0 l/m 0,00 h 0,00 h 87 W/m 7,2 km/h (2 Bft) 99,39 %
24.05.2019 08:00 14,3 C 16,5 C 14,5 C 78 % 1015,5 hPa 0,0 l/m 0,03 h 0,00 h 139 W/m 7,8 km/h (2 Bft) 97,10 %
24.05.2019 09:00 17,5 C 23,6 C 23,0 C 70 % 1015,4 hPa 0,0 l/m 1,00 h 0,00 h 512 W/m 8,2 km/h (2 Bft) 96,58 %
24.05.2019 10:00 21,2 C 26,8 C 26,5 C 56 % 1015,4 hPa 0,0 l/m 1,00 h 0,00 h 665 W/m 11,7 km/h (2 Bft) 96,02 %
24.05.2019 11:00 23,7 C 30,0 C 30,0 C 52 % 1015,1 hPa 0,0 l/m 1,00 h 0,00 h 806 W/m 11,4 km/h (2 Bft) 98,86 %
24.05.2019 12:00 24,5 C 28,5 C 28,6 C 50 % 1014,8 hPa 0,0 l/m 0,73 h 0,00 h 688 W/m 11,1 km/h (2 Bft) 97,94 %
24.05.2019 13:00 24,8 C 27,8 C 28,1 C 49 % 1014,5 hPa 0,0 l/m 0,63 h 0,00 h 652 W/m 13,3 km/h (3 Bft) 97,38 %
24.05.2019 14:00 25,1 C 27,1 C 27,3 C 49 % 1014,4 hPa 0,0 l/m 0,57 h 0,00 h 553 W/m 11,6 km/h (2 Bft) 98,21 %
24.05.2019 15:00 23,9 C 25,0 C 23,5 C 52 % 1014,3 hPa 0,0 l/m 0,37 h 0,00 h 427 W/m 9,1 km/h (2 Bft) 96,65 %
24.05.2019 16:00 22,8 C 20,7 C 19,3 C 65 % 1014,1 hPa 1,2 l/m 0,37 h 0,30 h 354 W/m 8,2 km/h (2 Bft) 98,36 %
24.05.2019 17:00 22,7 C 23,2 C 20,5 C 60 % 1013,6 hPa 0,0 l/m 0,70 h 0,00 h 386 W/m 10,3 km/h (2 Bft) 97,65 %
24.05.2019 18:00 22,9 C 22,9 C 21,4 C 51 % 1013,4 hPa 0,0 l/m 0,70 h 0,00 h 263 W/m 10,2 km/h (2 Bft) 96,24 %
24.05.2019 19:00 22,2 C 21,0 C 19,0 C 55 % 1013,4 hPa 0,0 l/m 0,53 h 0,00 h 146 W/m 12,9 km/h (3 Bft) 99,57 %
24.05.2019 20:00 19,9 C 18,6 C 17,7 C 58 % 1014,2 hPa 0,0 l/m 0,00 h 0,00 h 52 W/m 16,2 km/h (3 Bft) 97,29 %
24.05.2019 21:00 18,1 C 16,4 C 15,8 C 57 % 1014,9 hPa 0,0 l/m 0,00 h 0,00 h 13 W/m 9,9 km/h (2 Bft) 96,94 %
24.05.2019 22:00 16,3 C 14,7 C 14,3 C 56 % 1015,5 hPa 0,0 l/m 0,00 h 0,00 h 0 W/m 6,6 km/h (2 Bft) 98,50 %
24.05.2019 23:00 14,8 C 13,1 C 12,7 C 57 % 1015,9 hPa 0,0 l/m 0,00 h 0,00 h 0 W/m 3,8 km/h (1 Bft) 97,66 %
25.05.2019 00:00 13,4 C 11,2 C 10,8 C 60 % 1016,2 hPa 0,0 l/m 0,00 h 0,00 h 0 W/m 1,5 km/h (1 Bft) 97,98 %
25.05.2019 01:00 12,0 C 9,8 C 9,5 C 65 % 1016,4 hPa 0,0 l/m 0,00 h 0,00 h 0 W/m 1,5 km/h (1 Bft) 97,54 %
25.05.2019 02:00 10,7 C 8,6 C 8,3 C 69 % 1016,3 hPa 0,0 l/m 0,00 h 0,00 h 0 W/m 0,7 km/h (0 Bft) 97,37 %
25.05.2019 03:00 9,6 C 7,6 C 7,3 C 74 % 1016,3 hPa 0,0 l/m 0,00 h 0,00 h 0 W/m 1,4 km/h (1 Bft) 95,25 %
25.05.2019 04:00 8,8 C 7,1 C 6,8 C 81 % 1016,5 hPa 0,0 l/m 0,00 h 0,00 h 0 W/m 0,5 km/h (0 Bft) 98,37 %
25.05.2019 05:00 8,1 C 6,7 C 6,4 C 85 % 1016,9 hPa 0,0 l/m 0,00 h 0,00 h 6 W/m 0,5 km/h (0 Bft) 98,77 %
25.05.2019 06:00 7,7 C 6,8 C 6,7 C 88 % 1017,3 hPa 0,0 l/m 0,00 h 0,00 h 18 W/m 1,4 km/h (1 Bft) 98,17 %
25.05.2019 07:00 8,2 C 9,3 C 8,4 C 92 % 1017,4 hPa 0,0 l/m 0,00 h 0,00 h 64 W/m 1,8 km/h (1 Bft) 95,54 %
25.05.2019 08:00 11,3 C 16,4 C 13,1 C 94 % 1017,7 hPa 0,0 l/m 0,07 h 0,00 h 170 W/m 6,1 km/h (2 Bft) 99,57 %
25.05.2019 09:00 13,5 C 15,9 C 15,0 C 83 % 1018,0 hPa 0,0 l/m 0,10 h 0,00 h 206 W/m 4,9 km/h (1 Bft) 96,81 %
25.05.2019 10:00 15,7 C 21,5 C 20,8 C 74 % 1018,0 hPa 0,0 l/m 0,73 h 0,00 h 521 W/m 7,6 km/h (2 Bft) 96,14 %
25.05.2019 11:00 18,9 C 25,4 C 24,9 C 65 % 1018,1 hPa 0,0 l/m 0,97 h 0,00 h 756 W/m 7,9 km/h (2 Bft) 98,06 %
25.05.2019 12:00 19,1 C 23,9 C 23,6 C 63 % 1018,2 hPa 0,0 l/m 0,97 h 0,00 h 676 W/m 11,2 km/h (2 Bft) 98,58 %
25.05.2019 13:00 20,2 C 25,8 C 26,9 C 60 % 1017,9 hPa 0,0 l/m 0,93 h 0,00 h 883 W/m 8,9 km/h (2 Bft) 98,33 %
25.05.2019 14:00 20,9 C 24,6 C 24,0 C 60 % 1017,7 hPa 0,0 l/m 0,77 h 0,00 h 748 W/m 9,1 km/h (2 Bft) 97,50 %
25.05.2019 15:00 21,9 C 24,8 C 21,2 C 57 % 1017,3 hPa 0,0 l/m 0,80 h 0,00 h 771 W/m 8,0 km/h (2 Bft) 97,08 %
25.05.2019 16:00 22,0 C 22,2 C 20,4 C 55 % 1017,0 hPa 0,0 l/m 0,63 h 0,00 h 542 W/m 8,4 km/h (2 Bft) 96,68 %
25.05.2019 17:00 22,2 C 22,2 C 21,1 C 54 % 1016,8 hPa 0,0 l/m 0,57 h 0,00 h 426 W/m 10,3 km/h (2 Bft) 99,12 %
25.05.2019 18:00 22,0 C 21,2 C 20,6 C 53 % 1016,5 hPa 0,0 l/m 0,83 h 0,00 h 374 W/m 9,5 km/h (2 Bft) 96,87 %
25.05.2019 19:00 19,8 C 18,1 C 17,4 C 59 % 1016,7 hPa 0,0 l/m 0,03 h 0,00 h 98 W/m 7,6 km/h (2 Bft) 96,44 %
25.05.2019 20:00 18,3 C 17,1 C 16,6 C 63 % 1016,7 hPa 0,0 l/m 0,07 h 0,00 h 51 W/m 4,5 km/h (1 Bft) 99,50 %
25.05.2019 21:00 17,2 C 15,0 C 14,2 C 66 % 1016,9 hPa 0,0 l/m 0,00 h 0,00 h 10 W/m 1,9 km/h (1 Bft) 96,74 %
25.05.2019 22:00 15,5 C 13,0 C 11,9 C 71 % 1017,4 hPa 0,0 l/m 0,00 h 0,00 h 0 W/m 0,3 km/h (0 Bft) 95,87 %
25.05.2019 23:00 13,9 C 11,3 C 10,5 C 76 % 1017,4 hPa 0,0 l/m 0,00 h 0,00 h 0 W/m 0,1 km/h (0 Bft) 96,65 %
26.05.2019 00:00 12,5 C 10,7 C 9,9 C 80 % 1017,1 hPa 0,0 l/m 0,00 h 0,00 h 0 W/m 0,7 km/h (0 Bft) 99,45 %
26.05.2019 01:00 11,9 C 10,9 C 9,9 C 83 % 1016,7 hPa 0,0 l/m 0,00 h 0,00 h 0 W/m 1,5 km/h (1 Bft) 96,51 %
26.05.2019 02:00 11,4 C 9,9 C 9,3 C 84 % 1016,4 hPa 0,0 l/m 0,00 h 0,00 h 0 W/m 1,5 km/h (1 Bft) 99,15 %
26.05.2019 03:00 11,5 C 10,9 C 10,8 C 87 % 1016,2 hPa 0,0 l/m 0,00 h 0,00 h 0 W/m 4,6 km/h (1 Bft) 95,94 %
26.05.2019 04:00 11,4 C 10,1 C 10,2 C 88 % 1016,1 hPa 0,0 l/m 0,00 h 0,00 h 0 W/m 2,9 km/h (1 Bft) 97,29 %
26.05.2019 05:00 11,1 C 10,2 C 10,0 C 91 % 1015,8 hPa 0,0 l/m 0,00 h 0,00 h 10 W/m 3,4 km/h (1 Bft) 97,24 %
26.05.2019 06:00 11,2 C 11,0 C 10,5 C 93 % 1015,7 hPa 0,0 l/m 0,00 h 0,00 h 37 W/m 8,9 km/h (2 Bft) 99,67 %
26.05.2019 07:00 11,8 C 12,7 C 11,9 C 92 % 1015,4 hPa 0,0 l/m 0,00 h 0,00 h 90 W/m 9,3 km/h (2 Bft) 95,37 %
26.05.2019 08:00 13,7 C 16,3 C 14,4 C 86 % 1015,3 hPa 0,0 l/m 0,03 h 0,00 h 143 W/m 11,1 km/h (2 Bft) 97,08 %
26.05.2019 09:00 16,5 C 20,8 C 20,6 C 78 % 1015,3 hPa 0,0 l/m 0,97 h 0,00 h 463 W/m 13,3 km/h (3 Bft) 98,36 %
26.05.2019 10:00 18,6 C 19,8 C 19,2 C 71 % 1015,0 hPa 0,0 l/m 0,33 h 0,00 h 321 W/m 16,0 km/h (3 Bft) 96,81 %
26.05.2019 11:00 18,6 C 18,6 C 18,0 C 72 % 1014,6 hPa 0,0 l/m 0,00 h 0,00 h 187 W/m 13,7 km/h (3 Bft) 99,15 %
26.05.2019 12:00 19,3 C 20,5 C 19,7 C 71 % 1014,3 hPa 0,0 l/m 0,00 h 0,00 h 339 W/m 16,4 km/h (3 Bft) 95,85 %
26.05.2019 13:00 20,4 C 21,7 C 20,9 C 69 % 1014,0 hPa 0,0 l/m 0,37 h 0,00 h 393 W/m 17,4 km/h (3 Bft) 97,08 %
26.05.2019 14:00 20,9 C 21,6 C 20,9 C 68 % 1013,5 hPa 0,0 l/m 0,00 h 0,00 h 329 W/m 15,8 km/h (3 Bft) 97,95 %
26.05.2019 15:00 21,5 C 22,5 C 21,6 C 66 % 1013,0 hPa 0,0 l/m 0,23 h 0,00 h 344 W/m 15,3 km/h (3 Bft) 98,45 %
26.05.2019 16:00 21,5 C 21,6 C 21,0 C 65 % 1012,6 hPa 0,0 l/m 0,00 h 0,00 h 225 W/m 16,2 km/h (3 Bft) 95,47 %
26.05.2019 17:00 21,0 C 20,3 C 19,8 C 66 % 1012,2 hPa 0,0 l/m 0,00 h 0,00 h 104 W/m 11,6 km/h (2 Bft) 97,58 %
26.05.2019 18:00 20,4 C 19,8 C 19,4 C 69 % 1011,7 hPa 0,0 l/m 0,00 h 0,00 h 101 W/m 10,9 km/h (2 Bft) 98,97 %
26.05.2019 19:00 20,5 C 20,3 C 19,6 C 69 % 1011,1 hPa 0,0 l/m 0,33 h 0,00 h 152 W/m 13,0 km/h (3 Bft) 95,10 %
26.05.2019 20:00 20,4 C 19,4 C 18,9 C 65 % 1010,8 hPa 0,0 l/m 0,00 h 0,00 h 43 W/m 16,3 km/h (3 Bft) 98,50 %
26.05.2019 21:00 19,1 C 17,9 C 17,4 C 62 % 1010,7 hPa 0,0 l/m 0,00 h 0,00 h 7 W/m 13,2 km/h (3 Bft) 99,43 %
26.05.2019 22:00 18,2 C 17,1 C 16,9 C 71 % 1010,9 hPa 0,0 l/m 0,00 h 0,00 h 0 W/m 14,1 km/h (3 Bft) 95,26 %
26.05.2019 23:00 17,1 C 15,8 C 15,6 C 77 % 1010,6 hPa 0,0 l/m 0,00 h 0,00 h 0 W/m 16,3 km/h (3 Bft) 97,94 %
Min-Datum _ 23.05.19 23.05.19 23.05.19 23.05.19 20.05.19 - - - - 20.05.19 23.05.19
_ Min-Zeit 06:08 04:58 04:34 18:08 02:34 - - - - 00:00 09:40
Minimum _ 7,7 C 6,1 C 6,1 C 40 % 1005,7 hPa - - - - 0,0 km/h (0 Bft) 35,48 %
Max-Datum _ 24.05.19 24.05.19 24.05.19 21.05.19 22.05.19 21.05.19 23.05.19 21.05.19 25.05.19 21.05.19 20.05.19
_ Max-Zeit 14:38 11:40 11:42 04:58 10:46 18:02 16:00 12:08 13:46 09:06 00:38
Maximum _ 25,4 C 31,7 C 32,2 C 99 % 1020,4 hPa 2,0 l/m 0,08 h 0,07 h 1143 W/m 51,5 km/h
N-NW (7 Bft)
100,00 %
Durchschnitt _ 15,4 C 15,6 C 15,0 C 78 % 1014,8 hPa #6,2 l/m #33:40 h #6:10 h 260 W/m 8,2 km/h (2 Bft) 97,48 %
© 2019 W. Hausmann